sensor_id;sensor_type;location;lat;lon;timestamp;pressure;altitude;pressure_sealevel;temperature;humidity
62600;BME280;48671;48.922;2.346;2022-08-03T00:00:34;101321.78;;;27.35;44.57
62600;BME280;48671;48.922;2.346;2022-08-03T00:02:59;101338.09;;;27.49;44.42
62600;BME280;48671;48.922;2.346;2022-08-03T00:05:24;101366.28;;;27.62;44.17
62600;BME280;48671;48.922;2.346;2022-08-03T00:07:50;101347.44;;;27.45;44.63
62600;BME280;48671;48.922;2.346;2022-08-03T00:10:15;101348.97;;;27.48;44.19
62600;BME280;48671;48.922;2.346;2022-08-03T00:12:40;101341.69;;;27.40;44.95
62600;BME280;48671;48.922;2.346;2022-08-03T00:15:06;101365.66;;;27.50;44.21
62600;BME280;48671;48.922;2.346;2022-08-03T00:17:32;101359.78;;;27.46;44.42
62600;BME280;48671;48.922;2.346;2022-08-03T00:19:57;101348.50;;;27.35;44.85
62600;BME280;48671;48.922;2.346;2022-08-03T00:22:22;101368.66;;;27.47;44.76
62600;BME280;48671;48.922;2.346;2022-08-03T00:24:48;101342.41;;;27.24;44.54
62600;BME280;48671;48.922;2.346;2022-08-03T00:27:13;101368.59;;;27.39;45.08
62600;BME280;48671;48.922;2.346;2022-08-03T00:29:38;101345.91;;;27.25;44.48
62600;BME280;48671;48.922;2.346;2022-08-03T00:32:04;101389.50;;;27.43;45.14
62600;BME280;48671;48.922;2.346;2022-08-03T00:34:29;101367.91;;;27.19;45.20
62600;BME280;48671;48.922;2.346;2022-08-03T00:36:55;101393.25;;;27.33;45.24
62600;BME280;48671;48.922;2.346;2022-08-03T00:39:20;101350.31;;;26.98;45.80
62600;BME280;48671;48.922;2.346;2022-08-03T00:41:46;101325.25;;;26.81;45.67
62600;BME280;48671;48.922;2.346;2022-08-03T00:44:11;101343.31;;;26.88;45.68
62600;BME280;48671;48.922;2.346;2022-08-03T00:46:36;101362.56;;;26.91;45.48
62600;BME280;48671;48.922;2.346;2022-08-03T00:49:02;101352.09;;;26.80;45.97
62600;BME280;48671;48.922;2.346;2022-08-03T00:51:27;101322.13;;;26.58;45.55
62600;BME280;48671;48.922;2.346;2022-08-03T00:53:52;101358.03;;;26.74;45.11
62600;BME280;48671;48.922;2.346;2022-08-03T00:56:18;101342.22;;;26.63;45.23
62600;BME280;48671;48.922;2.346;2022-08-03T00:58:44;101328.94;;;26.53;45.36
62600;BME280;48671;48.922;2.346;2022-08-03T01:01:10;101346.50;;;26.55;45.53
62600;BME280;48671;48.922;2.346;2022-08-03T01:03:36;101375.03;;;26.73;45.72
62600;BME280;48671;48.922;2.346;2022-08-03T01:06:11;101369.00;;;26.71;45.67
62600;BME280;48671;48.922;2.346;2022-08-03T01:08:49;101363.97;;;26.68;45.80
62600;BME280;48671;48.922;2.346;2022-08-03T01:11:25;101369.16;;;26.69;45.75
62600;BME280;48671;48.922;2.346;2022-08-03T01:14:10;101363.53;;;26.72;45.34
62600;BME280;48671;48.922;2.346;2022-08-03T01:16:43;101358.19;;;26.72;45.84
62600;BME280;48671;48.922;2.346;2022-08-03T01:19:35;101355.81;;;26.69;45.72
62600;BME280;48671;48.922;2.346;2022-08-03T01:30:18;101298.56;;;26.26;46.08
62600;BME280;48671;48.922;2.346;2022-08-03T01:32:53;101306.53;;;26.36;45.48
62600;BME280;48671;48.922;2.346;2022-08-03T01:35:47;101323.75;;;26.42;45.43
62600;BME280;48671;48.922;2.346;2022-08-03T01:38:21;101332.28;;;26.45;45.30
62600;BME280;48671;48.922;2.346;2022-08-03T01:40:49;101319.88;;;26.36;45.55
62600;BME280;48671;48.922;2.346;2022-08-03T01:43:20;101334.28;;;26.43;45.88
62600;BME280;48671;48.922;2.346;2022-08-03T01:45:48;101322.78;;;26.43;45.78
62600;BME280;48671;48.922;2.346;2022-08-03T01:48:16;101312.53;;;26.38;45.35
62600;BME280;48671;48.922;2.346;2022-08-03T01:50:42;101326.56;;;26.40;46.57
62600;BME280;48671;48.922;2.346;2022-08-03T01:53:13;101338.88;;;26.23;46.60
62600;BME280;48671;48.922;2.346;2022-08-03T01:55:39;101307.94;;;25.93;46.17
62600;BME280;48671;48.922;2.346;2022-08-03T01:58:06;101311.03;;;25.88;46.29
62600;BME280;48671;48.922;2.346;2022-08-03T02:00:35;101337.09;;;26.04;46.24
62600;BME280;48671;48.922;2.346;2022-08-03T02:03:04;101330.78;;;26.05;46.25
62600;BME280;48671;48.922;2.346;2022-08-03T02:05:31;101307.53;;;25.88;46.61
62600;BME280;48671;48.922;2.346;2022-08-03T02:07:57;101309.50;;;25.86;46.81
62600;BME280;48671;48.922;2.346;2022-08-03T02:10:24;101296.72;;;25.70;46.53
62600;BME280;48671;48.922;2.346;2022-08-03T02:12:52;101303.22;;;25.67;47.01
62600;BME280;48671;48.922;2.346;2022-08-03T02:15:19;101337.00;;;25.86;47.09
62600;BME280;48671;48.922;2.346;2022-08-03T02:17:46;101322.97;;;25.75;47.05
62600;BME280;48671;48.922;2.346;2022-08-03T02:20:14;101279.53;;;25.55;47.10
62600;BME280;48671;48.922;2.346;2022-08-03T02:22:41;101296.34;;;25.65;46.98
62600;BME280;48671;48.922;2.346;2022-08-03T02:25:08;101281.75;;;25.59;46.87
62600;BME280;48671;48.922;2.346;2022-08-03T02:27:34;101278.53;;;25.56;46.62
62600;BME280;48671;48.922;2.346;2022-08-03T02:30:06;101282.31;;;25.63;47.06
62600;BME280;48671;48.922;2.346;2022-08-03T02:32:38;101276.13;;;25.62;47.38
62600;BME280;48671;48.922;2.346;2022-08-03T02:35:07;101284.13;;;25.62;47.01
62600;BME280;48671;48.922;2.346;2022-08-03T02:37:37;101288.06;;;25.68;46.88
62600;BME280;48671;48.922;2.346;2022-08-03T02:40:07;101286.78;;;25.72;46.93
62600;BME280;48671;48.922;2.346;2022-08-03T02:42:34;101318.91;;;25.90;46.98
62600;BME280;48671;48.922;2.346;2022-08-03T02:45:02;101298.69;;;25.78;46.70
62600;BME280;48671;48.922;2.346;2022-08-03T02:47:30;101299.56;;;25.68;46.78
62600;BME280;48671;48.922;2.346;2022-08-03T02:49:56;101267.19;;;25.44;47.16
62600;BME280;48671;48.922;2.346;2022-08-03T02:52:27;101302.22;;;25.68;47.24
62600;BME280;48671;48.922;2.346;2022-08-03T02:54:57;101305.16;;;25.75;47.20
62600;BME280;48671;48.922;2.346;2022-08-03T02:57:25;101285.97;;;25.62;47.32
62600;BME280;48671;48.922;2.346;2022-08-03T02:59:52;101314.81;;;25.76;47.18
62600;BME280;48671;48.922;2.346;2022-08-03T03:02:19;101260.91;;;25.45;47.09
62600;BME280;48671;48.922;2.346;2022-08-03T03:04:46;101265.78;;;25.50;47.08
62600;BME280;48671;48.922;2.346;2022-08-03T03:07:14;101288.34;;;25.65;46.89
62600;BME280;48671;48.922;2.346;2022-08-03T03:09:41;101307.81;;;25.75;47.52
62600;BME280;48671;48.922;2.346;2022-08-03T03:12:08;101271.38;;;25.56;47.32
62600;BME280;48671;48.922;2.346;2022-08-03T03:14:35;101294.94;;;25.71;47.33
62600;BME280;48671;48.922;2.346;2022-08-03T03:17:01;101301.66;;;25.65;47.76
62600;BME280;48671;48.922;2.346;2022-08-03T03:19:28;101298.03;;;25.56;47.32
62600;BME280;48671;48.922;2.346;2022-08-03T03:21:55;101288.94;;;25.49;47.50
62600;BME280;48671;48.922;2.346;2022-08-03T03:24:22;101292.44;;;25.50;47.00
62600;BME280;48671;48.922;2.346;2022-08-03T03:26:47;101293.53;;;25.47;47.67
62600;BME280;48671;48.922;2.346;2022-08-03T03:29:14;101283.88;;;25.46;47.72
62600;BME280;48671;48.922;2.346;2022-08-03T03:31:40;101276.16;;;25.43;47.89
62600;BME280;48671;48.922;2.346;2022-08-03T03:34:05;101299.59;;;25.49;47.71
62600;BME280;48671;48.922;2.346;2022-08-03T03:36:31;101293.28;;;25.40;47.62
62600;BME280;48671;48.922;2.346;2022-08-03T03:38:56;101253.78;;;25.16;47.76
62600;BME280;48671;48.922;2.346;2022-08-03T03:41:22;101249.72;;;25.12;47.89
62600;BME280;48671;48.922;2.346;2022-08-03T03:43:48;101284.31;;;25.41;48.04
62600;BME280;48671;48.922;2.346;2022-08-03T03:46:14;101249.72;;;25.12;48.13
62600;BME280;48671;48.922;2.346;2022-08-03T03:48:40;101253.47;;;25.10;48.83
62600;BME280;48671;48.922;2.346;2022-08-03T03:51:05;101292.72;;;25.27;48.39
62600;BME280;48671;48.922;2.346;2022-08-03T03:53:31;101282.78;;;25.19;48.52
62600;BME280;48671;48.922;2.346;2022-08-03T03:55:56;101296.81;;;25.31;47.97
62600;BME280;48671;48.922;2.346;2022-08-03T03:58:21;101237.78;;;24.97;48.37
62600;BME280;48671;48.922;2.346;2022-08-03T04:00:47;101294.53;;;25.36;48.44
62600;BME280;48671;48.922;2.346;2022-08-03T04:03:13;101293.56;;;25.37;48.32
62600;BME280;48671;48.922;2.346;2022-08-03T04:05:39;101256.97;;;25.10;47.97
62600;BME280;48671;48.922;2.346;2022-08-03T04:08:22;101282.34;;;25.24;48.12
62600;BME280;48671;48.922;2.346;2022-08-03T04:11:19;101295.25;;;25.29;48.45
62600;BME280;48671;48.922;2.346;2022-08-03T04:13:52;101256.56;;;24.95;48.43
62600;BME280;48671;48.922;2.346;2022-08-03T04:16:22;101291.59;;;25.20;48.41
62600;BME280;48671;48.922;2.346;2022-08-03T04:18:52;101232.31;;;24.79;48.22
62600;BME280;48671;48.922;2.346;2022-08-03T04:21:21;101262.00;;;24.94;48.55
62600;BME280;48671;48.922;2.346;2022-08-03T04:23:49;101297.38;;;25.15;48.59
62600;BME280;48671;48.922;2.346;2022-08-03T04:26:19;101300.59;;;25.19;48.48
62600;BME280;48671;48.922;2.346;2022-08-03T04:28:46;101291.75;;;25.18;48.39
62600;BME280;48671;48.922;2.346;2022-08-03T04:31:14;101297.22;;;25.27;48.65
62600;BME280;48671;48.922;2.346;2022-08-03T04:33:42;101247.69;;;24.95;48.49
62600;BME280;48671;48.922;2.346;2022-08-03T04:36:13;101268.16;;;25.04;48.69
62600;BME280;48671;48.922;2.346;2022-08-03T04:38:52;101263.84;;;25.03;48.43
62600;BME280;48671;48.922;2.346;2022-08-03T04:41:20;101234.53;;;24.84;48.38
62600;BME280;48671;48.922;2.346;2022-08-03T04:43:48;101273.38;;;25.06;48.97
62600;BME280;48671;48.922;2.346;2022-08-03T04:46:15;101263.69;;;24.95;48.26
62600;BME280;48671;48.922;2.346;2022-08-03T04:48:42;101291.16;;;25.05;48.41
62600;BME280;48671;48.922;2.346;2022-08-03T04:51:08;101256.84;;;24.92;48.93
62600;BME280;48671;48.922;2.346;2022-08-03T04:53:36;101260.34;;;24.93;48.62
62600;BME280;48671;48.922;2.346;2022-08-03T04:56:04;101294.16;;;25.21;48.44
62600;BME280;48671;48.922;2.346;2022-08-03T04:58:30;101290.34;;;25.34;48.28
62600;BME280;48671;48.922;2.346;2022-08-03T05:00:55;101307.72;;;25.48;48.20
62600;BME280;48671;48.922;2.346;2022-08-03T05:03:21;101285.44;;;25.39;47.94
62600;BME280;48671;48.922;2.346;2022-08-03T05:05:46;101237.50;;;25.10;48.13
62600;BME280;48671;48.922;2.346;2022-08-03T05:08:11;101271.13;;;25.30;48.10
62600;BME280;48671;48.922;2.346;2022-08-03T05:10:37;101255.72;;;25.14;48.01
62600;BME280;48671;48.922;2.346;2022-08-03T05:13:02;101246.47;;;25.09;47.89
62600;BME280;48671;48.922;2.346;2022-08-03T05:15:28;101271.28;;;25.19;48.21
62600;BME280;48671;48.922;2.346;2022-08-03T05:17:53;101300.88;;;25.35;48.42
62600;BME280;48671;48.922;2.346;2022-08-03T05:20:19;101255.97;;;25.11;48.49
62600;BME280;48671;48.922;2.346;2022-08-03T05:22:44;101279.84;;;25.22;48.23
62600;BME280;48671;48.922;2.346;2022-08-03T05:25:10;101283.06;;;25.26;48.57
62600;BME280;48671;48.922;2.346;2022-08-03T05:27:35;101289.09;;;25.28;48.46
62600;BME280;48671;48.922;2.346;2022-08-03T05:30:00;101271.94;;;25.11;48.30
62600;BME280;48671;48.922;2.346;2022-08-03T05:32:26;101274.50;;;25.13;48.75
62600;BME280;48671;48.922;2.346;2022-08-03T05:34:51;101288.66;;;25.23;49.03
62600;BME280;48671;48.922;2.346;2022-08-03T05:37:16;101271.56;;;25.16;48.36
62600;BME280;48671;48.922;2.346;2022-08-03T05:39:42;101276.06;;;25.15;48.84
62600;BME280;48671;48.922;2.346;2022-08-03T05:42:07;101257.78;;;25.11;48.72
62600;BME280;48671;48.922;2.346;2022-08-03T05:44:33;101305.19;;;25.36;48.75
62600;BME280;48671;48.922;2.346;2022-08-03T05:46:58;101314.84;;;25.47;48.52
62600;BME280;48671;48.922;2.346;2022-08-03T05:49:23;101310.94;;;25.51;48.51
62600;BME280;48671;48.922;2.346;2022-08-03T05:51:49;101305.34;;;25.54;48.64
62600;BME280;48671;48.922;2.346;2022-08-03T05:54:14;101295.91;;;25.50;48.46
62600;BME280;48671;48.922;2.346;2022-08-03T05:56:40;101259.25;;;25.34;48.36
62600;BME280;48671;48.922;2.346;2022-08-03T05:59:06;101260.75;;;25.37;48.09
62600;BME280;48671;48.922;2.346;2022-08-03T06:01:31;101312.03;;;25.68;48.10
62600;BME280;48671;48.922;2.346;2022-08-03T06:03:57;101311.19;;;25.77;48.53
62600;BME280;48671;48.922;2.346;2022-08-03T06:06:22;101291.41;;;25.70;48.05
62600;BME280;48671;48.922;2.346;2022-08-03T06:08:48;101271.09;;;25.59;47.90
62600;BME280;48671;48.922;2.346;2022-08-03T06:11:13;101314.41;;;25.90;48.07
62600;BME280;48671;48.922;2.346;2022-08-03T06:13:39;101283.56;;;25.68;48.43
62600;BME280;48671;48.922;2.346;2022-08-03T06:16:04;101290.28;;;25.82;47.76
62600;BME280;48671;48.922;2.346;2022-08-03T06:18:30;101276.81;;;25.84;48.02
62600;BME280;48671;48.922;2.346;2022-08-03T06:20:55;101276.81;;;25.84;48.10
62600;BME280;48671;48.922;2.346;2022-08-03T06:23:21;101275.53;;;25.88;47.94
62600;BME280;48671;48.922;2.346;2022-08-03T06:25:47;101289.56;;;26.00;47.36
62600;BME280;48671;48.922;2.346;2022-08-03T06:28:12;101293.72;;;26.02;46.85
62600;BME280;48671;48.922;2.346;2022-08-03T06:30:42;101284.16;;;26.09;46.89
62600;BME280;48671;48.922;2.346;2022-08-03T06:33:08;101252.81;;;25.94;47.00
62600;BME280;48671;48.922;2.346;2022-08-03T06:35:33;101294.72;;;26.29;47.41
62600;BME280;48671;48.922;2.346;2022-08-03T06:37:58;101280.31;;;26.22;47.31
62600;BME280;48671;48.922;2.346;2022-08-03T06:40:24;101318.09;;;26.54;47.15
62600;BME280;48671;48.922;2.346;2022-08-03T06:43:01;101288.94;;;26.43;47.10
62600;BME280;48671;48.922;2.346;2022-08-03T06:45:28;101286.09;;;26.45;47.47
62600;BME280;48671;48.922;2.346;2022-08-03T06:48:04;101269.13;;;26.46;46.33
62600;BME280;48671;48.922;2.346;2022-08-03T06:50:29;101294.06;;;26.54;46.36
62600;BME280;48671;48.922;2.346;2022-08-03T06:52:55;101313.34;;;26.76;46.64
62600;BME280;48671;48.922;2.346;2022-08-03T06:55:21;101323.25;;;26.83;46.18
62600;BME280;48671;48.922;2.346;2022-08-03T06:57:48;101311.75;;;26.83;46.15
62600;BME280;48671;48.922;2.346;2022-08-03T07:00:14;101281.22;;;26.68;46.14
62600;BME280;48671;48.922;2.346;2022-08-03T07:02:39;101323.59;;;26.98;45.67
62600;BME280;48671;48.922;2.346;2022-08-03T07:05:05;101313.75;;;26.99;46.24
62600;BME280;48671;48.922;2.346;2022-08-03T07:07:31;101303.59;;;27.02;45.99
62600;BME280;48671;48.922;2.346;2022-08-03T07:09:56;101320.13;;;27.16;46.16
62600;BME280;48671;48.922;2.346;2022-08-03T07:12:21;101280.69;;;27.00;45.44
62600;BME280;48671;48.922;2.346;2022-08-03T07:14:47;101314.69;;;27.25;45.49
62600;BME280;48671;48.922;2.346;2022-08-03T07:17:12;101293.94;;;27.19;45.42
62600;BME280;48671;48.922;2.346;2022-08-03T07:19:37;101284.59;;;27.23;45.34
62600;BME280;48671;48.922;2.346;2022-08-03T07:22:03;101307.19;;;27.47;45.02
62600;BME280;48671;48.922;2.346;2022-08-03T07:24:28;101279.19;;;27.33;44.85
62600;BME280;48671;48.922;2.346;2022-08-03T07:26:54;101277.91;;;27.37;44.73
62600;BME280;48671;48.922;2.346;2022-08-03T07:29:20;101250.97;;;27.30;44.50
62600;BME280;48671;48.922;2.346;2022-08-03T07:31:45;101295.31;;;27.67;44.79
62600;BME280;48671;48.922;2.346;2022-08-03T07:34:11;101283.63;;;27.68;44.04
62600;BME280;48671;48.922;2.346;2022-08-03T07:36:36;101277.13;;;27.71;43.66
62600;BME280;48671;48.922;2.346;2022-08-03T07:39:02;101284.06;;;27.82;44.02
62600;BME280;48671;48.922;2.346;2022-08-03T07:41:28;101315.13;;;28.09;43.17
62600;BME280;48671;48.922;2.346;2022-08-03T07:43:53;101285.47;;;27.94;43.12
62600;BME280;48671;48.922;2.346;2022-08-03T07:46:19;101286.81;;;27.98;43.63
62600;BME280;48671;48.922;2.346;2022-08-03T07:48:44;101283.41;;;28.14;43.24
62600;BME280;48671;48.922;2.346;2022-08-03T07:51:09;101276.38;;;28.13;42.91
62600;BME280;48671;48.922;2.346;2022-08-03T07:53:35;101295.31;;;28.28;42.50
62600;BME280;48671;48.922;2.346;2022-08-03T07:56:00;101304.19;;;28.28;41.99
62600;BME280;48671;48.922;2.346;2022-08-03T07:58:25;101297.66;;;28.22;42.21
62600;BME280;48671;48.922;2.346;2022-08-03T08:00:51;101298.00;;;28.28;42.08
62600;BME280;48671;48.922;2.346;2022-08-03T08:03:17;101320.56;;;28.59;42.05
62600;BME280;48671;48.922;2.346;2022-08-03T08:05:43;101318.41;;;28.71;41.83
62600;BME280;48671;48.922;2.346;2022-08-03T08:08:09;101325.97;;;28.84;42.24
62600;BME280;48671;48.922;2.346;2022-08-03T08:10:35;101310.28;;;28.89;41.80
62600;BME280;48671;48.922;2.346;2022-08-03T08:13:00;101274.94;;;28.85;40.90
62600;BME280;48671;48.922;2.346;2022-08-03T08:15:26;101326.78;;;29.27;40.56
62600;BME280;48671;48.922;2.346;2022-08-03T08:17:53;101321.91;;;29.38;39.97
62600;BME280;48671;48.922;2.346;2022-08-03T08:20:24;101319.22;;;29.47;40.02
62600;BME280;48671;48.922;2.346;2022-08-03T08:22:50;101296.09;;;29.37;40.35
62600;BME280;48671;48.922;2.346;2022-08-03T08:25:16;101306.66;;;29.63;39.78
62600;BME280;48671;48.922;2.346;2022-08-03T08:27:46;101300.78;;;29.76;39.69
62600;BME280;48671;48.922;2.346;2022-08-03T08:30:14;101314.66;;;29.96;39.80
62600;BME280;48671;48.922;2.346;2022-08-03T08:32:40;101292.69;;;29.84;38.29
62600;BME280;48671;48.922;2.346;2022-08-03T08:35:06;101313.09;;;30.02;37.62
62600;BME280;48671;48.922;2.346;2022-08-03T08:37:32;101306.56;;;30.04;37.62
62600;BME280;48671;48.922;2.346;2022-08-03T08:39:58;101304.06;;;30.03;38.08
62600;BME280;48671;48.922;2.346;2022-08-03T08:42:24;101285.22;;;30.11;37.80
62600;BME280;48671;48.922;2.346;2022-08-03T08:44:49;101298.31;;;30.53;37.39
62600;BME280;48671;48.922;2.346;2022-08-03T08:47:18;101300.50;;;30.89;35.82
62600;BME280;48671;48.922;2.346;2022-08-03T08:49:45;101278.00;;;31.13;35.87
62600;BME280;48671;48.922;2.346;2022-08-03T08:52:12;101261.88;;;31.28;34.89
62600;BME280;48671;48.922;2.346;2022-08-03T08:54:40;101296.31;;;31.70;35.04
62600;BME280;48671;48.922;2.346;2022-08-03T08:57:06;101247.19;;;31.39;34.99
62600;BME280;48671;48.922;2.346;2022-08-03T08:59:33;101290.75;;;31.72;32.98
62600;BME280;48671;48.922;2.346;2022-08-03T09:01:59;101282.09;;;31.62;33.37
62600;BME280;48671;48.922;2.346;2022-08-03T09:04:26;101295.06;;;31.58;34.27
62600;BME280;48671;48.922;2.346;2022-08-03T09:06:52;101293.31;;;31.65;34.29
62600;BME280;48671;48.922;2.346;2022-08-03T09:09:17;101282.09;;;31.62;34.29
62600;BME280;48671;48.922;2.346;2022-08-03T09:11:43;101287.41;;;31.70;33.54
62600;BME280;48671;48.922;2.346;2022-08-03T09:14:10;101256.38;;;31.44;34.27
62600;BME280;48671;48.922;2.346;2022-08-03T09:16:35;101292.69;;;31.63;33.97
62600;BME280;48671;48.922;2.346;2022-08-03T09:19:12;101284.72;;;31.70;33.82
62600;BME280;48671;48.922;2.346;2022-08-03T09:21:38;101246.28;;;31.61;34.50
62600;BME280;48671;48.922;2.346;2022-08-03T09:24:05;101275.28;;;31.89;34.49
62600;BME280;48671;48.922;2.346;2022-08-03T09:26:33;101284.63;;;32.08;31.98
62600;BME280;48671;48.922;2.346;2022-08-03T09:28:59;101282.69;;;32.16;33.12
62600;BME280;48671;48.922;2.346;2022-08-03T09:31:36;101271.00;;;32.09;33.07
62600;BME280;48671;48.922;2.346;2022-08-03T09:34:10;101235.19;;;31.94;33.56
62600;BME280;48671;48.922;2.346;2022-08-03T09:36:38;101269.97;;;32.25;33.10
62600;BME280;48671;48.922;2.346;2022-08-03T09:39:05;101274.69;;;32.38;32.70
62600;BME280;48671;48.922;2.346;2022-08-03T09:41:32;101216.50;;;32.07;33.12
62600;BME280;48671;48.922;2.346;2022-08-03T09:43:57;101277.34;;;32.53;32.20
62600;BME280;48671;48.922;2.346;2022-08-03T09:46:23;101265.75;;;32.52;32.47
62600;BME280;48671;48.922;2.346;2022-08-03T09:48:48;101271.47;;;32.64;31.97
62600;BME280;48671;48.922;2.346;2022-08-03T09:51:14;101221.66;;;32.38;31.46
62600;BME280;48671;48.922;2.346;2022-08-03T09:53:46;101264.22;;;32.64;31.31
62600;BME280;48671;48.922;2.346;2022-08-03T09:56:12;101266.22;;;32.77;31.89
62600;BME280;48671;48.922;2.346;2022-08-03T09:58:45;101261.97;;;32.90;31.17
62600;BME280;48671;48.922;2.346;2022-08-03T10:01:15;101239.78;;;32.87;31.08
62600;BME280;48671;48.922;2.346;2022-08-03T10:03:40;101238.50;;;33.05;31.81
62600;BME280;48671;48.922;2.346;2022-08-03T10:06:19;101253.34;;;33.22;30.34
62600;BME280;48671;48.922;2.346;2022-08-03T10:08:46;101261.16;;;33.39;31.09
62600;BME280;48671;48.922;2.346;2022-08-03T10:11:29;101247.06;;;33.37;30.36
62600;BME280;48671;48.922;2.346;2022-08-03T10:13:55;101250.84;;;33.42;30.22
62600;BME280;48671;48.922;2.346;2022-08-03T10:16:20;101222.00;;;33.43;28.85
62600;BME280;48671;48.922;2.346;2022-08-03T10:18:46;101246.03;;;33.66;30.55
62600;BME280;48671;48.922;2.346;2022-08-03T10:21:15;101188.47;;;33.52;29.23
62600;BME280;48671;48.922;2.346;2022-08-03T10:23:41;101200.34;;;33.64;27.95
62600;BME280;48671;48.922;2.346;2022-08-03T10:26:09;101190.44;;;33.43;29.06
62600;BME280;48671;48.922;2.346;2022-08-03T10:28:39;101223.81;;;33.64;29.55
62600;BME280;48671;48.922;2.346;2022-08-03T10:31:07;101214.66;;;33.65;29.61
62600;BME280;48671;48.922;2.346;2022-08-03T10:33:37;101202.25;;;33.70;29.05
62600;BME280;48671;48.922;2.346;2022-08-03T10:36:06;101200.44;;;33.84;28.78
62600;BME280;48671;48.922;2.346;2022-08-03T10:38:36;101198.13;;;33.81;28.92
62600;BME280;48671;48.922;2.346;2022-08-03T10:41:03;101194.22;;;33.84;28.87
62600;BME280;48671;48.922;2.346;2022-08-03T10:43:49;101214.94;;;34.18;28.58
62600;BME280;48671;48.922;2.346;2022-08-03T10:46:18;101195.66;;;34.34;28.86
62600;BME280;48671;48.922;2.346;2022-08-03T10:48:45;101210.63;;;34.43;28.81
62600;BME280;48671;48.922;2.346;2022-08-03T10:51:12;101181.53;;;34.32;28.40
62600;BME280;48671;48.922;2.346;2022-08-03T10:53:40;101187.81;;;34.53;28.74
62600;BME280;48671;48.922;2.346;2022-08-03T10:59:18;101167.06;;;34.86;27.41
62600;BME280;48671;48.922;2.346;2022-08-03T11:01:50;101169.78;;;35.06;26.78
62600;BME280;48671;48.922;2.346;2022-08-03T11:04:18;101190.75;;;35.17;26.78
62600;BME280;48671;48.922;2.346;2022-08-03T11:06:44;101198.25;;;35.22;26.55
62600;BME280;48671;48.922;2.346;2022-08-03T11:11:36;101185.75;;;35.21;27.25
62600;BME280;48671;48.922;2.346;2022-08-03T11:19:13;101192.50;;;35.77;26.46
62600;BME280;48671;48.922;2.346;2022-08-03T11:27:22;101178.88;;;36.03;25.41
62600;BME280;48671;48.922;2.346;2022-08-03T11:30:14;101155.38;;;35.84;26.03
62600;BME280;48671;48.922;2.346;2022-08-03T11:35:19;101165.72;;;36.14;25.53
62600;BME280;48671;48.922;2.346;2022-08-03T11:46:08;101159.06;;;36.03;24.72
62600;BME280;48671;48.922;2.346;2022-08-03T11:48:47;101153.59;;;36.16;24.92
62600;BME280;48671;48.922;2.346;2022-08-03T11:53:44;101164.00;;;36.51;23.58
62600;BME280;48671;48.922;2.346;2022-08-03T11:56:12;101162.91;;;36.59;24.55
62600;BME280;48671;48.922;2.346;2022-08-03T11:58:45;101164.69;;;36.71;24.36
62600;BME280;48671;48.922;2.346;2022-08-03T12:01:11;101132.56;;;36.50;22.99
62600;BME280;48671;48.922;2.346;2022-08-03T12:03:37;101135.16;;;36.31;23.43
62600;BME280;48671;48.922;2.346;2022-08-03T12:06:08;101159.41;;;36.51;24.42
62600;BME280;48671;48.922;2.346;2022-08-03T12:08:34;101161.75;;;36.73;24.00
62600;BME280;48671;48.922;2.346;2022-08-03T12:11:02;101141.66;;;36.80;23.15
62600;BME280;48671;48.922;2.346;2022-08-03T12:13:56;101151.94;;;36.97;22.85
62600;BME280;48671;48.922;2.346;2022-08-03T12:16:23;101125.47;;;36.99;22.98
62600;BME280;48671;48.922;2.346;2022-08-03T12:19:01;101164.50;;;37.16;23.15
62600;BME280;48671;48.922;2.346;2022-08-03T12:21:27;101147.31;;;37.04;23.24
62600;BME280;48671;48.922;2.346;2022-08-03T12:23:57;101155.09;;;37.19;22.62
62600;BME280;48671;48.922;2.346;2022-08-03T12:26:25;101158.31;;;37.28;22.50
62600;BME280;48671;48.922;2.346;2022-08-03T12:28:50;101126.31;;;36.93;22.66
62600;BME280;48671;48.922;2.346;2022-08-03T12:31:16;101135.25;;;37.00;23.09
62600;BME280;48671;48.922;2.346;2022-08-03T12:36:23;101116.50;;;37.17;22.59
62600;BME280;48671;48.922;2.346;2022-08-03T12:41:32;101121.78;;;37.48;22.69
62600;BME280;48671;48.922;2.346;2022-08-03T12:43:59;101107.44;;;37.60;21.83
62600;BME280;48671;48.922;2.346;2022-08-03T12:46:30;101113.41;;;37.80;22.39
62600;BME280;48671;48.922;2.346;2022-08-03T12:49:10;101099.97;;;38.04;21.89
62600;BME280;48671;48.922;2.346;2022-08-03T12:51:54;101142.88;;;38.44;21.30
62600;BME280;48671;48.922;2.346;2022-08-03T12:54:27;101133.53;;;38.63;21.29
62600;BME280;48671;48.922;2.346;2022-08-03T12:57:05;101128.56;;;38.60;21.72
62600;BME280;48671;48.922;2.346;2022-08-03T12:59:36;101080.88;;;38.34;21.45
62600;BME280;48671;48.922;2.346;2022-08-03T13:02:04;101106.47;;;38.56;21.31
62600;BME280;48671;48.922;2.346;2022-08-03T13:04:34;101083.03;;;38.55;21.19
62600;BME280;48671;48.922;2.346;2022-08-03T13:07:08;101092.03;;;38.79;20.65
62600;BME280;48671;48.922;2.346;2022-08-03T13:09:45;101110.84;;;39.04;20.81
62600;BME280;48671;48.922;2.346;2022-08-03T13:12:30;101111.88;;;39.39;20.91
62600;BME280;48671;48.922;2.346;2022-08-03T13:14:59;101102.75;;;39.33;20.14
62600;BME280;48671;48.922;2.346;2022-08-03T13:17:25;101071.16;;;39.20;20.24
62600;BME280;48671;48.922;2.346;2022-08-03T13:19:51;101112.81;;;39.44;19.85
62600;BME280;48671;48.922;2.346;2022-08-03T13:22:22;101103.50;;;39.28;19.77
62600;BME280;48671;48.922;2.346;2022-08-03T13:24:50;101078.75;;;39.18;19.87
62600;BME280;48671;48.922;2.346;2022-08-03T13:27:16;101082.16;;;39.25;19.34
62600;BME280;48671;48.922;2.346;2022-08-03T13:29:42;101085.88;;;39.31;19.76
62600;BME280;48671;48.922;2.346;2022-08-03T13:32:08;101056.16;;;39.29;19.77
62600;BME280;48671;48.922;2.346;2022-08-03T13:34:34;101081.91;;;39.39;19.29
62600;BME280;48671;48.922;2.346;2022-08-03T13:36:59;101067.41;;;39.21;20.08